This is the latest recevied weather packets stored in our database for station/object E27EKO-13. If no packets are shown the sender has not sent any weather packets the latest 10 day(s).
| Time | Temp. | Humidity | Pressure | Rain* | Wind** | Luminosity | Snow |
|---|---|---|---|---|---|---|---|
| 1787813876 | 37.78° C | 53% | 1005 hPa | - | - | 0 W/m² | - |
| 1787813554 | 37.78° C | 53% | 1005 hPa | - | - | 0 W/m² | - |
| 1787813232 | 38.33° C | 53% | 1005 hPa | - | - | 0 W/m² | - |
| 1787812912 | 37.78° C | 54% | 1005 hPa | - | - | 0 W/m² | - |
| 1787812588 | 37.78° C | 54% | 1005 hPa | - | - | 0 W/m² | - |
| 1787812266 | 37.78° C | 54% | 1005 hPa | - | - | 0 W/m² | - |
| 1787811944 | 37.78° C | 54% | 1006 hPa | - | - | 0 W/m² | - |
| 1787811622 | 37.22° C | 55% | 1006 hPa | - | - | 0 W/m² | - |
| 1787811300 | 37.22° C | 55% | 1006 hPa | - | - | 0 W/m² | - |
| 1787810979 | 37.22° C | 55% | 1006 hPa | - | - | 0 W/m² | - |
| 1787810656 | 37.22° C | 55% | 1006 hPa | - | - | 0 W/m² | - |
| 1787810334 | 37.78° C | 54% | 1006 hPa | - | - | 0 W/m² | - |
| 1787810012 | 37.78° C | 53% | 1006 hPa | - | - | 0 W/m² | - |
| 1787809689 | 37.78° C | 55% | 1006 hPa | - | - | 0 W/m² | - |
| 1787809367 | 37.22° C | 56% | 1006 hPa | - | - | 0 W/m² | - |
| 1787809045 | 37.22° C | 55% | 1006 hPa | - | - | 0 W/m² | - |
| 1787808723 | 37.78° C | 53% | 1007 hPa | - | - | 0 W/m² | - |
| 1787808401 | 37.22° C | 55% | 1007 hPa | - | - | 0 W/m² | - |
| 1787808079 | 37.22° C | 56% | 1007 hPa | - | - | 0 W/m² | - |
| 1787807757 | 36.11° C | 61% | 1007 hPa | - | - | 0 W/m² | - |
| 1787807474 | 35.56° C | 60% | 1007 hPa | - | - | 0 W/m² | - |
| 1787807151 | 36.67° C | 57% | 1008 hPa | - | - | 0 W/m² | - |
| 1787806829 | 37.22° C | 56% | 1008 hPa | - | - | 0 W/m² | - |
| 1787806507 | 37.22° C | 56% | 1008 hPa | - | - | 0 W/m² | - |
| 1787806186 | 37.22° C | 56% | 1008 hPa | - | - | 0 W/m² | - |
* Rain since midnight (hover to see other rain measurements)
** Current wind speed in m/s (hover to see current wind gust speed)